This is the latest recevied weather packets stored in our database for station/object EA5GTE-12. If no packets are shown the sender has not sent any weather packets the latest 10 day(s).
| Time | Temp. | Humidity | Pressure | Rain* | Wind** | Luminosity | Snow |
|---|---|---|---|---|---|---|---|
| 1787584993 | 31.11° C | 29% | 935.7 hPa | - | - | - | - |
| 1787584092 | 30° C | 29% | 935.7 hPa | - | - | - | - |
| 1787583192 | 31.11° C | 26% | 935.8 hPa | - | - | - | - |
| 1787582292 | 30.56° C | 26% | 936.1 hPa | - | - | - | - |
| 1787581392 | 31.67° C | 24% | 935.9 hPa | - | - | - | - |
| 1787580492 | 31.67° C | 23% | 936.3 hPa | - | - | - | - |
| 1787579592 | 30.56° C | 25% | 936.4 hPa | - | - | - | - |
| 1787578691 | 29.44° C | 25% | 936.5 hPa | - | - | - | - |
| 1787577791 | 28.33° C | 27% | 936.8 hPa | - | - | - | - |
| 1787576892 | 28.33° C | 27% | 937 hPa | - | - | - | - |
| 1787575991 | 30.56° C | 23% | 937.1 hPa | - | - | - | - |
| 1787575091 | 30.56° C | 22% | 936.5 hPa | - | - | - | - |
| 1787574191 | 30.56° C | 18% | 936.8 hPa | - | - | - | - |
| 1787573291 | 30° C | 19% | 937.2 hPa | - | - | - | - |
| 1787572391 | 30° C | 20% | 937.2 hPa | - | - | - | - |
| 1787571490 | 31.11° C | 21% | 937.2 hPa | - | - | - | - |
| 1787570590 | 30° C | 19% | 937.5 hPa | - | - | - | - |
| 1787569690 | 30° C | 19% | 937.6 hPa | - | - | - | - |
| 1787568790 | 31.11° C | 23% | 937.9 hPa | - | - | - | - |
| 1787567890 | 31.11° C | 26% | 938.2 hPa | - | - | - | - |
| 1787566091 | 33.33° C | 29% | 938.7 hPa | - | - | - | - |
| 1787565190 | 31.11° C | 38% | 938.8 hPa | - | - | - | - |
| 1787564290 | 33.89° C | 37% | 939.1 hPa | - | - | - | - |
| 1787563390 | 28.89° C | 54% | 939.4 hPa | - | - | - | - |
| 1787562490 | 27.78° C | 63% | 939.3 hPa | - | - | - | - |
* Rain since midnight (hover to see other rain measurements)
** Current wind speed in m/s (hover to see current wind gust speed)